首页
METAR-TAF:

METAR-TAF

机场 :

Newport Municipal Airport

纽波特, 俄勒冈州, 美国

纬度: 44-34-49N, 经度: 124-03-29W, 海拔: 49米

当前天气观测

该预报发布于42分钟前的15:35 UTC
风速10节,风向南转南东,有时为15节阵风
温度 10°C
湿度 76%
气压 1023 hPa
能見度: 16.1公里
散云层高于3700英尺
阴天层高于8000英尺

METAR: KONP 131535Z AUTO 15010G15KT 10SM SCT037 OVC080 10/06 A3021 RMK AO2

时间: 08:17 (16:17 UTC)

预报

该预报发布于4小时和41分钟前的11:36 UTC
预报有效从13日的 12点(UTC)到 14日的 12点(UTC)
风速6节,风向
能見度: 10公里
散云层高于3000英尺
阴天层高于10000英尺
从 13日的 1600点(UTC)
风速15节,风向,有时为22节阵风
能見度: 10公里
阴天层高于10000英尺
从 13日的 2300点(UTC)
风速14节,风向,有时为22节阵风
能見度: 9.7公里
多云层高于25000英尺
霾, 轻雾

TAF: KONP 131136Z 1312/1412 17006KT P6SM SCT030 OVC100 FM131600 19015G22KT P6SM OVC100 FM132300 17014G22KT 6SM HZ BR BKN250

超过4000个机场的气象观测和天气预报(METAR&TAF报告)。

可查询的气象台以黄色和红色小点在地图上表示。

将鼠标移到小点上方,可查看气象台名称。

然后点击查看天气观测和预报。

如需切换地图:点击带黑十字的绿色按钮放大地图;点击带横线的绿色按钮缩小地图;或者点击绿色箭头查看邻近地区的地图。


METAR-TAF: